Time;durP1;ratioP1;P1;durP2;ratioP2;P2;SDS_P1;SDS_P2;PMS_P1;PMS_P2;Temp;Humidity;BMP_temperature;BMP_pressure;BME280_temperature;BME280_humidity;BME280_pressure;Samples;Min_cycle;Max_cycle;Signal;HPM_P1;HPM_P2
2021/12/15 00:00:48;;;;;;;;;;;;;;;;;;5006381;28;19955;-74
2021/12/15 00:03:16;;;;;;;;;;;;;;;;;;4998659;28;19957;-75
2021/12/15 00:05:41;;;;;;;;;;;;;;;;;;5007887;28;20020;-75
2021/12/15 00:08:11;;;;;;;;;;;;;;;;;;5006282;28;20420;-76
2021/12/15 00:10:36;;;;;;;;;;;;;;;;;;5010040;28;19913;-75
2021/12/15 00:13:02;;;;;;;;;;;;;;;;;;5003850;28;20333;-75
2021/12/15 00:15:29;;;;;;;;;;;;;;;;;;5001929;28;20401;-75
2021/12/15 00:17:55;;;;;;;;;;;;;;;;;;5005723;28;20011;-76
2021/12/15 00:20:21;;;;;;;;;;;;;;;;;;5010521;28;19959;-75
2021/12/15 00:22:52;;;;;;;;;;;;;;;;;;5004942;28;20388;-76
2021/12/15 00:25:17;;;;;;;;;;;;;;;;;;5009251;28;19921;-75
2021/12/15 00:27:43;;;;;;;;;;;;;;;;;;5000493;28;20030;-75
2021/12/15 00:30:09;;;;;;;;;;;;;;;;;;5004953;28;19952;-75
2021/12/15 00:32:35;;;;;;;;;;;;;;;;;;5007528;28;20000;-75
2021/12/15 00:35:01;;;;;;;;;;;;;;;;;;5006241;28;19960;-76
2021/12/15 00:37:27;;;;;;;;;;;;;;;;;;5005953;28;19960;-75
2021/12/15 00:39:53;;;;;;;;;;;;;;;;;;5010060;28;20013;-75
2021/12/15 00:42:19;;;;;;;;;;;;;;;;;;5007240;28;19945;-75
2021/12/15 00:44:45;;;;;;;;;;;;;;;;;;5004690;28;19945;-75
2021/12/15 00:47:11;;;;;;;;;;;;;;;;;;5010470;28;19956;-76
2021/12/15 00:49:37;;;;;;;;;;;;;;;;;;5006044;28;19929;-75
2021/12/15 00:52:03;;;;;;;;;;;;;;;;;;5005424;28;19914;-76
2021/12/15 00:54:29;;;;;;;;;;;;;;;;;;5009582;28;19952;-75
2021/12/15 00:56:55;;;;;;;;;;;;;;;;;;5006553;28;19941;-75
2021/12/15 00:59:21;;;;;;;;;;;;;;;;;;5002505;28;20011;-75
2021/12/15 01:01:47;;;;;;;;;;;;;;;;;;5002167;28;20396;-74
2021/12/15 01:04:13;;;;;;;;;;;;;;;;;;5011663;28;20497;-75
2021/12/15 01:06:39;;;;;;;;;;;;;;;;;;5006998;28;19920;-75
2021/12/15 01:09:06;;;;;;;;;;;;;;;;;;5007985;28;19918;-75
2021/12/15 01:12:19;;;;;;;;;;;;;;;;;;5009813;28;19917;-74
2021/12/15 01:14:33;;;;;;;;;;;;;;;;;;5000441;28;19913;-74
2021/12/15 01:22:13;;;;;;;;;;;;;;;;;;4994352;28;20282;-74
2021/12/15 01:24:39;;;;;;;;;;;;;;;;;;5008380;28;19964;-75
2021/12/15 01:27:05;;;;;;;;;;;;;;;;;;5008940;28;19963;-76
2021/12/15 01:29:31;;;;;;;;;;;;;;;;;;5005629;28;20329;-75
2021/12/15 01:31:57;;;;;;;;;;;;;;;;;;5004326;28;20384;-74
2021/12/15 01:34:23;;;;;;;;;;;;;;;;;;5006374;28;20393;-74
2021/12/15 01:36:49;;;;;;;;;;;;;;;;;;5000268;28;20006;-75
2021/12/15 01:39:15;;;;;;;;;;;;;;;;;;5013195;28;19992;-74
2021/12/15 01:41:42;;;;;;;;;;;;;;;;;;5008722;28;20010;-74
2021/12/15 01:49:19;;;;;;;;;;;;;;;;;;5007357;28;20421;-75
2021/12/15 01:51:45;;;;;;;;;;;;;;;;;;5002252;28;19941;-74
2021/12/15 01:54:11;;;;;;;;;;;;;;;;;;5005538;28;19949;-75
2021/12/15 01:56:37;;;;;;;;;;;;;;;;;;5009926;28;19941;-74
2021/12/15 01:59:02;;;;;;;;;;;;;;;;;;5013737;28;19944;-74
2021/12/15 02:01:28;;;;;;;;;;;;;;;;;;5004391;28;19948;-74
2021/12/15 02:03:54;;;;;;;;;;;;;;;;;;5006922;28;19953;-75
2021/12/15 02:06:20;;;;;;;;;;;;;;;;;;5007588;28;19945;-74
2021/12/15 02:08:48;;;;;;;;;;;;;;;;;;5004778;28;19953;-75
2021/12/15 02:11:14;;;;;;;;;;;;;;;;;;5001480;28;20500;-74
2021/12/15 02:13:40;;;;;;;;;;;;;;;;;;5009488;28;20428;-75
2021/12/15 02:16:06;;;;;;;;;;;;;;;;;;5000994;28;19948;-75
2021/12/15 02:18:32;;;;;;;;;;;;;;;;;;5017603;28;19944;-75
2021/12/15 02:20:58;;;;;;;;;;;;;;;;;;5011509;28;19948;-75
2021/12/15 02:23:31;;;;;;;;;;;;;;;;;;5009178;28;19909;-74
2021/12/15 02:25:57;;;;;;;;;;;;;;;;;;5012039;28;19935;-75
2021/12/15 02:28:23;;;;;;;;;;;;;;;;;;5008882;28;19909;-74
2021/12/15 02:38:32;;;;;;;;;;;;;;;;;;5008284;28;19923;-75
2021/12/15 02:41:06;;;;;;;;;;;;;;;;;;5008312;28;19953;-75
2021/12/15 02:43:32;;;;;;;;;;;;;;;;;;5010514;28;20775;-75
2021/12/15 02:45:58;;;;;;;;;;;;;;;;;;5006681;28;19950;-75
2021/12/15 02:48:24;;;;;;;;;;;;;;;;;;5008151;28;20397;-75
2021/12/15 02:50:50;;;;;;;;;;;;;;;;;;5011977;28;20310;-74
2021/12/15 02:53:17;;;;;;;;;;;;;;;;;;5014365;28;19910;-74
2021/12/15 02:55:43;;;;;;;;;;;;;;;;;;5012610;28;19920;-75
2021/12/15 02:58:09;;;;;;;;;;;;;;;;;;5008402;28;19923;-74
2021/12/15 03:01:01;;;;;;;;;;;;;;;;;;5005985;28;19992;-75
2021/12/15 03:06:15;;;;;;;;;;;;;;;;;;5011749;28;20297;-75
2021/12/15 03:16:39;;;;;;;;;;;;;;;;;;5005750;28;19916;-75
2021/12/15 03:19:05;;;;;;;;;;;;;;;;;;5005285;28;19949;-74
2021/12/15 03:21:31;;;;;;;;;;;;;;;;;;5011305;28;20501;-75
2021/12/15 03:23:57;;;;;;;;;;;;;;;;;;5005627;28;19910;-74
2021/12/15 03:26:26;;;;;;;;;;;;;;;;;;5012304;28;19933;-75
2021/12/15 03:37:26;;;;;;;;;;;;;;;;;;4997813;28;20358;-75
2021/12/15 03:39:52;;;;;;;;;;;;;;;;;;5004125;28;19916;-74
2021/12/15 03:42:20;;;;;;;;;;;;;;;;;;5011396;28;19909;-74
2021/12/15 03:44:46;;;;;;;;;;;;;;;;;;5006880;28;20433;-75
2021/12/15 03:47:12;;;;;;;;;;;;;;;;;;5004283;28;20017;-75
2021/12/15 03:49:38;;;;;;;;;;;;;;;;;;5008276;28;20019;-74
2021/12/15 03:52:04;;;;;;;;;;;;;;;;;;5006637;28;19955;-74
2021/12/15 03:54:30;;;;;;;;;;;;;;;;;;5008467;28;19952;-74
2021/12/15 03:56:56;;;;;;;;;;;;;;;;;;5008360;28;19949;-75
2021/12/15 03:59:23;;;;;;;;;;;;;;;;;;5007023;28;20219;-75
2021/12/15 04:01:49;;;;;;;;;;;;;;;;;;5005087;28;19959;-74
2021/12/15 04:04:15;;;;;;;;;;;;;;;;;;5005828;28;20341;-75
2021/12/15 04:06:41;;;;;;;;;;;;;;;;;;5006150;28;19951;-74
2021/12/15 04:09:07;;;;;;;;;;;;;;;;;;5003818;28;19965;-75
2021/12/15 04:11:34;;;;;;;;;;;;;;;;;;5011531;28;19944;-74
2021/12/15 04:14:00;;;;;;;;;;;;;;;;;;5001417;28;19913;-75
2021/12/15 04:18:58;;;;;;;;;;;;;;;;;;5000805;28;19914;-74
2021/12/15 04:21:24;;;;;;;;;;;;;;;;;;5008985;28;20423;-74
2021/12/15 04:23:50;;;;;;;;;;;;;;;;;;5010080;28;20426;-75
2021/12/15 04:26:16;;;;;;;;;;;;;;;;;;5007865;28;20400;-75
2021/12/15 04:28:42;;;;;;;;;;;;;;;;;;5002678;28;19916;-75
2021/12/15 04:31:08;;;;;;;;;;;;;;;;;;5009962;28;19956;-75
2021/12/15 04:33:34;;;;;;;;;;;;;;;;;;5012544;28;19965;-75
2021/12/15 04:36:01;;;;;;;;;;;;;;;;;;5008846;28;19914;-75
2021/12/15 04:38:27;;;;;;;;;;;;;;;;;;5004603;28;19987;-74
2021/12/15 04:40:52;;;;;;;;;;;;;;;;;;5007506;28;19976;-74
2021/12/15 04:43:18;;;;;;;;;;;;;;;;;;5007131;28;19963;-74
2021/12/15 04:45:44;;;;;;;;;;;;;;;;;;5001525;28;19947;-74
2021/12/15 04:48:10;;;;;;;;;;;;;;;;;;5007263;28;19913;-76
2021/12/15 04:50:36;;;;;;;;;;;;;;;;;;5006071;28;19960;-74
2021/12/15 04:53:03;;;;;;;;;;;;;;;;;;5011024;28;19913;-74
2021/12/15 04:55:29;;;;;;;;;;;;;;;;;;5009118;28;19910;-74
2021/12/15 04:57:55;;;;;;;;;;;;;;;;;;5001858;28;19945;-74
2021/12/15 05:00:21;;;;;;;;;;;;;;;;;;5000635;28;19956;-74
2021/12/15 05:02:47;;;;;;;;;;;;;;;;;;5005308;28;20378;-75
2021/12/15 05:05:13;;;;;;;;;;;;;;;;;;5011140;28;19984;-75
2021/12/15 05:07:39;;;;;;;;;;;;;;;;;;4994471;28;19949;-74
2021/12/15 05:10:05;;;;;;;;;;;;;;;;;;5011141;28;19951;-75
2021/12/15 05:12:31;;;;;;;;;;;;;;;;;;5008201;28;19957;-74
2021/12/15 05:14:57;;;;;;;;;;;;;;;;;;5008885;28;20024;-75
2021/12/15 05:17:23;;;;;;;;;;;;;;;;;;5007900;28;19974;-75
2021/12/15 05:19:49;;;;;;;;;;;;;;;;;;5007699;28;19940;-75
2021/12/15 05:22:15;;;;;;;;;;;;;;;;;;5002887;28;19999;-75
2021/12/15 05:24:42;;;;;;;;;;;;;;;;;;5006120;28;19961;-75
2021/12/15 05:27:09;;;;;;;;;;;;;;;;;;5005676;28;19916;-75
2021/12/15 05:29:35;;;;;;;;;;;;;;;;;;4998600;28;19913;-75
2021/12/15 05:32:01;;;;;;;;;;;;;;;;;;5010296;28;19967;-74
2021/12/15 05:34:27;;;;;;;;;;;;;;;;;;5006008;28;19952;-75
2021/12/15 05:36:53;;;;;;;;;;;;;;;;;;5006657;28;19931;-75
2021/12/15 05:39:19;;;;;;;;;;;;;;;;;;5001412;28;19909;-74
2021/12/15 05:41:45;;;;;;;;;;;;;;;;;;5009422;28;19932;-74
2021/12/15 05:44:11;;;;;;;;;;;;;;;;;;5009286;28;20337;-75
2021/12/15 05:46:37;;;;;;;;;;;;;;;;;;5005086;28;20352;-74
2021/12/15 05:49:03;;;;;;;;;;;;;;;;;;5007803;28;20388;-75
2021/12/15 05:51:29;;;;;;;;;;;;;;;;;;5008844;28;19995;-75
2021/12/15 05:53:54;;;;;;;;;;;;;;;;;;5013468;28;19940;-75
2021/12/15 05:56:20;;;;;;;;;;;;;;;;;;5013923;28;19956;-75
2021/12/15 05:58:46;;;;;;;;;;;;;;;;;;5010287;28;19941;-75
2021/12/15 06:01:12;;;;;;;;;;;;;;;;;;5005641;28;20032;-74
2021/12/15 06:03:38;;;;;;;;;;;;;;;;;;5008901;28;19948;-75
2021/12/15 06:06:04;;;;;;;;;;;;;;;;;;5012249;28;19952;-76
2021/12/15 06:08:30;;;;;;;;;;;;;;;;;;5008605;28;20041;-75
2021/12/15 06:10:56;;;;;;;;;;;;;;;;;;5012341;28;21355;-74
2021/12/15 06:13:25;;;;;;;;;;;;;;;;;;5012950;28;20019;-75
2021/12/15 06:15:51;;;;;;;;;;;;;;;;;;5007465;28;20297;-74
2021/12/15 06:18:17;;;;;;;;;;;;;;;;;;4998039;28;19917;-74
2021/12/15 06:20:43;;;;;;;;;;;;;;;;;;5016074;28;19909;-75
2021/12/15 06:23:15;;;;;;;;;;;;;;;;;;5012515;28;20014;-75
2021/12/15 06:25:41;;;;;;;;;;;;;;;;;;5014842;28;19909;-76
2021/12/15 06:28:07;;;;;;;;;;;;;;;;;;5010807;28;19913;-75
2021/12/15 06:30:33;;;;;;;;;;;;;;;;;;5015175;28;19960;-75
2021/12/15 06:32:59;;;;;;;;;;;;;;;;;;5012353;28;19982;-75
2021/12/15 06:35:25;;;;;;;;;;;;;;;;;;5024783;28;19945;-75
2021/12/15 06:37:51;;;;;;;;;;;;;;;;;;5017636;28;20452;-75
2021/12/15 06:40:17;;;;;;;;;;;;;;;;;;5004288;28;20361;-75
2021/12/15 06:42:43;;;;;;;;;;;;;;;;;;5016020;28;20352;-75
2021/12/15 06:45:11;;;;;;;;;;;;;;;;;;5013257;28;20353;-74
2021/12/15 06:58:36;;;;;;;;;;;;;;;;;;5008133;28;19916;-75
2021/12/15 07:01:02;;;;;;;;;;;;;;;;;;4996891;28;19957;-75
2021/12/15 07:03:28;;;;;;;;;;;;;;;;;;5007195;28;19977;-74
2021/12/15 07:05:55;;;;;;;;;;;;;;;;;;5013396;28;19914;-74
2021/12/15 07:08:22;;;;;;;;;;;;;;;;;;4996162;28;19917;-75
2021/12/15 07:10:47;;;;;;;;;;;;;;;;;;5006293;28;19952;-75
2021/12/15 07:13:13;;;;;;;;;;;;;;;;;;5004306;28;19956;-74
2021/12/15 07:15:39;;;;;;;;;;;;;;;;;;5006008;28;19909;-75
2021/12/15 07:18:08;;;;;;;;;;;;;;;;;;4998905;28;19916;-75
2021/12/15 07:20:45;;;;;;;;;;;;;;;;;;5013304;28;20299;-75
2021/12/15 07:23:11;;;;;;;;;;;;;;;;;;5010012;28;19910;-75
2021/12/15 07:25:37;;;;;;;;;;;;;;;;;;5013052;28;19917;-75
2021/12/15 07:28:03;;;;;;;;;;;;;;;;;;5013013;28;19960;-75
2021/12/15 07:30:29;;;;;;;;;;;;;;;;;;5008901;28;19914;-75
2021/12/15 07:32:55;;;;;;;;;;;;;;;;;;5009641;28;19921;-75
2021/12/15 07:35:21;;;;;;;;;;;;;;;;;;5005296;28;19976;-75
2021/12/15 07:37:47;;;;;;;;;;;;;;;;;;5005296;28;19924;-76
2021/12/15 07:40:18;;;;;;;;;;;;;;;;;;5009133;28;20008;-76
2021/12/15 07:45:42;;;;;;;;;;;;;;;;;;4999255;28;19910;-76
2021/12/15 07:48:08;;;;;;;;;;;;;;;;;;5008890;28;19948;-75
2021/12/15 07:50:34;;;;;;;;;;;;;;;;;;5008617;28;19917;-75
2021/12/15 07:53:00;;;;;;;;;;;;;;;;;;5003878;28;19949;-76
2021/12/15 07:55:26;;;;;;;;;;;;;;;;;;5007893;28;19917;-76
2021/12/15 07:57:52;;;;;;;;;;;;;;;;;;5000301;28;19944;-75
2021/12/15 08:00:18;;;;;;;;;;;;;;;;;;5007661;28;19909;-75
2021/12/15 08:02:44;;;;;;;;;;;;;;;;;;4998515;28;19909;-75
2021/12/15 08:05:10;;;;;;;;;;;;;;;;;;5004616;28;20047;-74
2021/12/15 08:07:36;;;;;;;;;;;;;;;;;;4996320;28;19909;-75
2021/12/15 08:10:05;;;;;;;;;;;;;;;;;;4999371;28;20085;-75
2021/12/15 08:12:31;;;;;;;;;;;;;;;;;;5007703;28;19921;-75
2021/12/15 08:14:57;;;;;;;;;;;;;;;;;;5007918;28;19909;-75
2021/12/15 08:17:23;;;;;;;;;;;;;;;;;;5004468;28;19941;-75
2021/12/15 08:19:50;;;;;;;;;;;;;;;;;;5004705;28;19940;-76
2021/12/15 08:22:16;;;;;;;;;;;;;;;;;;5010666;28;19909;-75
2021/12/15 08:24:42;;;;;;;;;;;;;;;;;;5008105;28;20292;-77
2021/12/15 08:27:08;;;;;;;;;;;;;;;;;;5006485;28;19910;-76
2021/12/15 08:29:34;;;;;;;;;;;;;;;;;;5003368;28;20408;-75
2021/12/15 08:31:59;;;;;;;;;;;;;;;;;;5010866;28;20409;-76
2021/12/15 08:34:25;;;;;;;;;;;;;;;;;;4997790;28;20375;-76
2021/12/15 08:36:52;;;;;;;;;;;;;;;;;;5005956;28;20000;-77
2021/12/15 08:39:18;;;;;;;;;;;;;;;;;;5004681;28;19910;-76
2021/12/15 08:41:44;;;;;;;;;;;;;;;;;;5006702;28;19961;-76
2021/12/15 08:44:10;;;;;;;;;;;;;;;;;;5000419;28;19956;-76
2021/12/15 08:46:39;;;;;;;;;;;;;;;;;;5008106;28;19915;-75
2021/12/15 08:49:05;;;;;;;;;;;;;;;;;;5001811;28;19909;-76
2021/12/15 08:51:31;;;;;;;;;;;;;;;;;;5008713;28;19953;-76
2021/12/15 08:53:57;;;;;;;;;;;;;;;;;;5004266;28;19959;-76
2021/12/15 08:56:23;;;;;;;;;;;;;;;;;;5007578;28;19940;-75
2021/12/15 08:58:49;;;;;;;;;;;;;;;;;;4996593;28;20388;-75
2021/12/15 09:01:15;;;;;;;;;;;;;;;;;;5011402;28;19909;-76
2021/12/15 09:03:43;;;;;;;;;;;;;;;;;;5015526;28;19949;-76
2021/12/15 09:06:08;;;;;;;;;;;;;;;;;;5013941;28;19909;-76
2021/12/15 09:08:34;;;;;;;;;;;;;;;;;;5008227;28;19949;-76
2021/12/15 09:11:00;;;;;;;;;;;;;;;;;;5010475;28;20201;-76
2021/12/15 09:13:30;;;;;;;;;;;;;;;;;;5009855;28;19998;-75
2021/12/15 09:15:56;;;;;;;;;;;;;;;;;;5009167;28;20429;-75
2021/12/15 09:18:22;;;;;;;;;;;;;;;;;;5003967;28;19909;-75
2021/12/15 09:20:48;;;;;;;;;;;;;;;;;;5011172;28;19941;-76
2021/12/15 09:23:14;;;;;;;;;;;;;;;;;;5007583;28;19961;-75
2021/12/15 09:25:40;;;;;;;;;;;;;;;;;;5003395;28;19924;-76
2021/12/15 09:28:06;;;;;;;;;;;;;;;;;;5005930;28;20708;-77
2021/12/15 09:30:32;;;;;;;;;;;;;;;;;;5010353;28;20712;-75
2021/12/15 09:32:58;;;;;;;;;;;;;;;;;;5017464;28;19949;-76
2021/12/15 09:35:24;;;;;;;;;;;;;;;;;;5011151;28;19984;-75
2021/12/15 09:37:50;;;;;;;;;;;;;;;;;;4997032;28;19978;-76
2021/12/15 09:40:16;;;;;;;;;;;;;;;;;;5018478;28;19961;-75
2021/12/15 09:42:42;;;;;;;;;;;;;;;;;;5019024;28;19963;-75
2021/12/15 09:45:28;;;;;;;;;;;;;;;;;;5011345;28;20545;-75
2021/12/15 10:12:21;;;;;;;;;;;;;;;;;;5009603;28;19967;-76
2021/12/15 10:17:43;;;;;;;;;;;;;;;;;;5012602;28;19920;-75
2021/12/15 10:20:09;;;;;;;;;;;;;;;;;;5010107;28;19996;-76
2021/12/15 10:25:00;;;;;;;;;;;;;;;;;;5010487;28;19949;-74
2021/12/15 10:27:26;;;;;;;;;;;;;;;;;;5000559;28;19971;-76
2021/12/15 10:29:52;;;;;;;;;;;;;;;;;;5013813;28;19956;-75
2021/12/15 10:32:18;;;;;;;;;;;;;;;;;;5010760;28;19909;-75
2021/12/15 10:34:44;;;;;;;;;;;;;;;;;;5003766;28;19957;-75
2021/12/15 10:37:10;;;;;;;;;;;;;;;;;;5010600;28;19909;-75
2021/12/15 10:39:36;;;;;;;;;;;;;;;;;;4999506;28;19909;-75
2021/12/15 10:42:02;;;;;;;;;;;;;;;;;;5013506;28;19941;-75
2021/12/15 10:44:28;;;;;;;;;;;;;;;;;;5028547;28;19952;-74
2021/12/15 10:46:54;;;;;;;;;;;;;;;;;;5009244;28;20253;-75
2021/12/15 10:49:20;;;;;;;;;;;;;;;;;;5006914;28;19947;-75
2021/12/15 10:51:47;;;;;;;;;;;;;;;;;;5019554;28;20376;-76
2021/12/15 10:54:13;;;;;;;;;;;;;;;;;;5007600;28;19914;-76
2021/12/15 10:56:39;;;;;;;;;;;;;;;;;;5007970;28;19913;-76
2021/12/15 10:59:05;;;;;;;;;;;;;;;;;;5006548;28;19960;-75
2021/12/15 11:01:31;;;;;;;;;;;;;;;;;;4998134;28;19945;-75
2021/12/15 11:03:58;;;;;;;;;;;;;;;;;;5010428;28;19995;-76
2021/12/15 11:06:27;;;;;;;;;;;;;;;;;;5002063;28;20395;-76
2021/12/15 11:08:53;;;;;;;;;;;;;;;;;;5000915;28;20086;-75
2021/12/15 11:11:19;;;;;;;;;;;;;;;;;;5007647;28;20394;-75
2021/12/15 11:13:45;;;;;;;;;;;;;;;;;;5005526;28;19977;-76
2021/12/15 11:16:11;;;;;;;;;;;;;;;;;;5008746;28;19968;-77
2021/12/15 11:18:37;;;;;;;;;;;;;;;;;;4991735;28;19975;-76
2021/12/15 11:21:03;;;;;;;;;;;;;;;;;;5012326;28;19909;-75
2021/12/15 11:23:29;;;;;;;;;;;;;;;;;;5006738;28;20456;-75
2021/12/15 11:25:54;;;;;;;;;;;;;;;;;;5011795;28;19940;-75
2021/12/15 11:28:21;;;;;;;;;;;;;;;;;;4998683;28;19984;-76
2021/12/15 11:30:46;;;;;;;;;;;;;;;;;;5000931;28;19921;-77
2021/12/15 11:33:12;;;;;;;;;;;;;;;;;;5009478;28;19940;-76
2021/12/15 11:35:38;;;;;;;;;;;;;;;;;;5011722;28;19953;-75
2021/12/15 11:38:05;;;;;;;;;;;;;;;;;;5007889;28;19909;-74
2021/12/15 11:40:31;;;;;;;;;;;;;;;;;;5001359;28;19917;-74
2021/12/15 11:42:57;;;;;;;;;;;;;;;;;;5007982;28;19980;-73
2021/12/15 11:45:23;;;;;;;;;;;;;;;;;;4997210;28;20116;-75
2021/12/15 11:47:49;;;;;;;;;;;;;;;;;;5008473;28;19909;-76
2021/12/15 11:50:15;;;;;;;;;;;;;;;;;;5006487;28;19970;-76
2021/12/15 11:52:41;;;;;;;;;;;;;;;;;;4999696;28;19960;-75
2021/12/15 11:55:07;;;;;;;;;;;;;;;;;;5004107;28;20363;-74
2021/12/15 11:57:33;;;;;;;;;;;;;;;;;;5003070;28;19944;-74
2021/12/15 11:59:59;;;;;;;;;;;;;;;;;;5002385;28;19956;-75
2021/12/15 12:02:26;;;;;;;;;;;;;;;;;;5004820;28;19917;-75
2021/12/15 12:04:52;;;;;;;;;;;;;;;;;;5010303;28;19909;-75
2021/12/15 12:07:18;;;;;;;;;;;;;;;;;;5009493;28;19914;-76
2021/12/15 12:09:44;;;;;;;;;;;;;;;;;;5006258;28;19971;-76
2021/12/15 12:12:10;;;;;;;;;;;;;;;;;;5001593;28;19910;-76
2021/12/15 12:14:42;;;;;;;;;;;;;;;;;;5001091;28;20052;-76
2021/12/15 12:17:12;;;;;;;;;;;;;;;;;;5007719;28;19955;-75
2021/12/15 12:19:38;;;;;;;;;;;;;;;;;;5008621;28;19916;-76
2021/12/15 12:22:04;;;;;;;;;;;;;;;;;;5002613;28;19954;-76
2021/12/15 12:24:33;;;;;;;;;;;;;;;;;;5000694;28;20367;-76
2021/12/15 12:26:59;;;;;;;;;;;;;;;;;;5005267;28;19914;-77
2021/12/15 12:29:25;;;;;;;;;;;;;;;;;;5003732;28;20007;-78
2021/12/15 12:31:51;;;;;;;;;;;;;;;;;;5009958;28;19952;-76
2021/12/15 12:34:17;;;;;;;;;;;;;;;;;;5008894;28;19941;-75
2021/12/15 12:36:43;;;;;;;;;;;;;;;;;;5007626;28;19959;-75
2021/12/15 12:39:09;;;;;;;;;;;;;;;;;;5004017;28;19961;-75
2021/12/15 12:41:35;;;;;;;;;;;;;;;;;;5004131;28;19975;-76
2021/12/15 12:44:01;;;;;;;;;;;;;;;;;;5006194;28;19945;-76
2021/12/15 12:46:34;;;;;;;;;;;;;;;;;;4999660;28;19956;-75
2021/12/15 12:59:30;;;;;;;;;;;;;;;;;;5006291;28;19931;-75
2021/12/15 13:01:56;;;;;;;;;;;;;;;;;;5002314;28;19909;-76
2021/12/15 13:04:22;;;;;;;;;;;;;;;;;;5011335;28;19913;-76
2021/12/15 13:06:49;;;;;;;;;;;;;;;;;;5003850;28;20003;-79
2021/12/15 13:09:16;;;;;;;;;;;;;;;;;;5006349;28;20310;-76
2021/12/15 13:11:43;;;;;;;;;;;;;;;;;;5003895;28;19924;-76
2021/12/15 13:14:09;;;;;;;;;;;;;;;;;;5005357;28;20271;-76
2021/12/15 13:16:35;;;;;;;;;;;;;;;;;;5006431;28;19916;-76
2021/12/15 13:19:01;;;;;;;;;;;;;;;;;;5004567;28;19994;-78
2021/12/15 13:21:27;;;;;;;;;;;;;;;;;;5006312;28;19944;-75
2021/12/15 13:23:58;;;;;;;;;;;;;;;;;;5001835;28;20382;-76
2021/12/15 13:29:09;;;;;;;;;;;;;;;;;;5007499;28;20040;-75
2021/12/15 13:31:35;;;;;;;;;;;;;;;;;;4999387;28;20004;-76
2021/12/15 13:34:01;;;;;;;;;;;;;;;;;;4994746;28;19952;-75
2021/12/15 13:36:27;;;;;;;;;;;;;;;;;;5004104;28;19956;-73
2021/12/15 13:38:53;;;;;;;;;;;;;;;;;;5001784;28;19960;-74
2021/12/15 13:41:26;;;;;;;;;;;;;;;;;;5004979;28;19998;-73
2021/12/15 13:43:52;;;;;;;;;;;;;;;;;;5008597;28;20000;-74
2021/12/15 13:46:55;;;;;;;;;;;;;;;;;;5079893;27;19939;-77
2021/12/15 13:49:23;;;;;;;;;;;;;;;;;;5070749;28;20285;-76
2021/12/15 13:51:49;;;;;;;;;;;;;;;;;;5061096;28;19913;-76
2021/12/15 13:54:15;;;;;;;;;;;;;;;;;;5061534;28;19956;-76
2021/12/15 13:56:41;;;;;;;;;;;;;;;;;;5067492;28;19982;-77
2021/12/15 13:59:07;;;;;;;;;;;;;;;;;;5073872;28;19964;-76
2021/12/15 14:01:33;;;;;;;;;;;;;;;;;;5083150;28;19967;-78
2021/12/15 14:03:59;;;;;;;;;;;;;;;;;;5071967;28;19997;-78
2021/12/15 14:06:25;;;;;;;;;;;;;;;;;;5064586;28;20359;-78
2021/12/15 14:08:53;;;;;;;;;;;;;;;;;;5064395;28;20447;-76
2021/12/15 14:11:20;;;;;;;;;;;;;;;;;;5058805;28;20244;-78
2021/12/15 14:13:46;;;;;;;;;;;;;;;;;;5066201;28;19913;-79
2021/12/15 14:16:12;;;;;;;;;;;;;;;;;;5088617;28;19919;-78
2021/12/15 14:18:38;;;;;;;;;;;;;;;;;;5052071;28;19955;-78
2021/12/15 14:21:04;;;;;;;;;;;;;;;;;;5063783;28;19960;-78
2021/12/15 14:23:30;;;;;;;;;;;;;;;;;;5067526;28;19955;-77
2021/12/15 14:25:56;;;;;;;;;;;;;;;;;;5077675;28;19967;-80
2021/12/15 14:28:21;;;;;;;;;;;;;;;;;;5070691;28;19948;-77
2021/12/15 14:30:47;;;;;;;;;;;;;;;;;;5073967;28;19917;-78
2021/12/15 14:33:13;;;;;;;;;;;;;;;;;;5071029;28;19940;-78
2021/12/15 14:35:45;;;;;;;;;;;;;;;;;;5063664;28;19956;-78
2021/12/15 14:38:11;;;;;;;;;;;;;;;;;;5074677;28;19959;-79
2021/12/15 14:40:37;;;;;;;;;;;;;;;;;;5070344;28;20378;-77
2021/12/15 14:43:03;;;;;;;;;;;;;;;;;;5081130;28;19951;-81
2021/12/15 14:45:29;;;;;;;;;;;;;;;;;;5064209;28;19975;-78
2021/12/15 14:47:55;;;;;;;;;;;;;;;;;;5062501;28;20453;-79
2021/12/15 14:50:21;;;;;;;;;;;;;;;;;;5061357;28;20419;-77
2021/12/15 14:52:47;;;;;;;;;;;;;;;;;;5069067;28;20485;-77
2021/12/15 14:55:13;;;;;;;;;;;;;;;;;;5063915;28;19940;-77
2021/12/15 14:57:39;;;;;;;;;;;;;;;;;;5050015;28;19944;-77
2021/12/15 15:00:05;;;;;;;;;;;;;;;;;;5053576;28;19913;-78
2021/12/15 15:02:31;;;;;;;;;;;;;;;;;;5052295;28;19955;-77
2021/12/15 15:04:57;;;;;;;;;;;;;;;;;;5048343;28;20014;-77
2021/12/15 15:07:23;;;;;;;;;;;;;;;;;;5050820;28;20039;-80
2021/12/15 15:09:49;;;;;;;;;;;;;;;;;;5068306;28;19916;-80
2021/12/15 15:12:14;;;;;;;;;;;;;;;;;;5052914;28;19959;-77
2021/12/15 15:14:42;;;;;;;;;;;;;;;;;;5068023;28;20210;-79
2021/12/15 15:17:10;;;;;;;;;;;;;;;;;;5085065;28;19923;-80
2021/12/15 15:19:51;;;;;;;;;;;;;;;;;;5049880;28;19948;-78
2021/12/15 15:22:17;;;;;;;;;;;;;;;;;;5061078;28;20379;-79
2021/12/15 15:24:47;;;;;;;;;;;;;;;;;;5055132;28;20409;-79
2021/12/15 15:27:13;;;;;;;;;;;;;;;;;;5055680;28;19966;-78
2021/12/15 15:29:39;;;;;;;;;;;;;;;;;;5058702;28;19996;-80
2021/12/15 15:32:05;;;;;;;;;;;;;;;;;;5052515;28;20017;-78
2021/12/15 15:34:30;;;;;;;;;;;;;;;;;;5060960;28;19951;-78
2021/12/15 15:36:56;;;;;;;;;;;;;;;;;;5042754;28;19955;-78
2021/12/15 15:39:22;;;;;;;;;;;;;;;;;;5046295;28;19956;-78
2021/12/15 15:41:48;;;;;;;;;;;;;;;;;;5046096;28;19944;-77
2021/12/15 15:44:14;;;;;;;;;;;;;;;;;;5041429;28;19987;-77
2021/12/15 15:46:40;;;;;;;;;;;;;;;;;;5047853;28;19976;-77
2021/12/15 15:49:06;;;;;;;;;;;;;;;;;;5053385;28;20398;-77
2021/12/15 15:51:33;;;;;;;;;;;;;;;;;;5046394;28;20488;-78
2021/12/15 15:53:59;;;;;;;;;;;;;;;;;;5050423;28;19920;-77
2021/12/15 15:56:25;;;;;;;;;;;;;;;;;;5048535;28;20447;-81
2021/12/15 15:58:51;;;;;;;;;;;;;;;;;;5058847;28;20355;-78
2021/12/15 16:01:17;;;;;;;;;;;;;;;;;;5050713;28;20379;-78
2021/12/15 16:03:42;;;;;;;;;;;;;;;;;;5064712;28;19920;-77
2021/12/15 16:06:08;;;;;;;;;;;;;;;;;;5053155;28;19955;-77
2021/12/15 16:08:34;;;;;;;;;;;;;;;;;;5045967;28;19948;-77
2021/12/15 16:11:00;;;;;;;;;;;;;;;;;;5053147;28;20009;-77
2021/12/15 16:13:26;;;;;;;;;;;;;;;;;;5044717;28;19912;-77
2021/12/15 16:15:54;;;;;;;;;;;;;;;;;;5050527;28;19959;-77
2021/12/15 16:18:20;;;;;;;;;;;;;;;;;;5049105;28;20003;-78
2021/12/15 16:21:12;;;;;;;;;;;;;;;;;;5043119;28;19920;-78
2021/12/15 16:23:37;;;;;;;;;;;;;;;;;;5053879;28;19920;-77
2021/12/15 16:26:04;;;;;;;;;;;;;;;;;;5045252;28;19948;-77
2021/12/15 16:28:30;;;;;;;;;;;;;;;;;;5040161;28;19928;-77
2021/12/15 16:30:56;;;;;;;;;;;;;;;;;;5036762;28;19963;-78
2021/12/15 16:33:22;;;;;;;;;;;;;;;;;;5043943;28;19948;-78
2021/12/15 16:35:49;;;;;;;;;;;;;;;;;;5049060;28;20001;-78
2021/12/15 16:38:15;;;;;;;;;;;;;;;;;;5039615;28;19919;-78
2021/12/15 16:40:40;;;;;;;;;;;;;;;;;;5052910;28;19921;-78
2021/12/15 16:43:07;;;;;;;;;;;;;;;;;;5080793;28;20292;-81
2021/12/15 16:45:33;;;;;;;;;;;;;;;;;;5080946;28;19932;-79
2021/12/15 16:47:59;;;;;;;;;;;;;;;;;;5046696;28;20382;-78
2021/12/15 16:50:25;;;;;;;;;;;;;;;;;;5050808;28;19955;-78
2021/12/15 16:52:51;;;;;;;;;;;;;;;;;;5041005;28;20001;-78
2021/12/15 16:55:17;;;;;;;;;;;;;;;;;;5043903;28;20387;-78
2021/12/15 16:57:43;;;;;;;;;;;;;;;;;;5059976;28;20010;-78
2021/12/15 17:00:09;;;;;;;;;;;;;;;;;;5046778;28;19960;-77
2021/12/15 17:02:34;;;;;;;;;;;;;;;;;;5041437;28;19948;-78
2021/12/15 17:05:00;;;;;;;;;;;;;;;;;;5044987;28;19956;-77
2021/12/15 17:07:26;;;;;;;;;;;;;;;;;;5046199;28;20383;-78
2021/12/15 17:09:52;;;;;;;;;;;;;;;;;;5042821;28;20442;-78
2021/12/15 17:12:22;;;;;;;;;;;;;;;;;;5044329;28;20448;-77
2021/12/15 17:17:24;;;;;;;;;;;;;;;;;;1499132;26;20333;-77
2021/12/15 17:19:50;;;;;;;;;;;;;;;;;;5025684;28;19948;-77
2021/12/15 17:22:16;;;;;;;;;;;;;;;;;;5026120;28;19917;-77
2021/12/15 17:24:42;;;;;;;;;;;;;;;;;;5024146;28;20419;-76
2021/12/15 17:27:08;;;;;;;;;;;;;;;;;;5025578;28;20412;-77
2021/12/15 17:29:34;;;;;;;;;;;;;;;;;;5022617;28;19964;-76
2021/12/15 17:32:00;;;;;;;;;;;;;;;;;;5021389;28;19967;-76
2021/12/15 17:34:26;;;;;;;;;;;;;;;;;;5025384;28;19952;-79
2021/12/15 17:36:52;;;;;;;;;;;;;;;;;;5025190;28;19920;-78
2021/12/15 17:39:18;;;;;;;;;;;;;;;;;;5023921;28;19960;-78
2021/12/15 17:41:44;;;;;;;;;;;;;;;;;;5022732;28;19940;-77
2021/12/15 17:44:10;;;;;;;;;;;;;;;;;;5025100;28;19968;-78
2021/12/15 17:46:36;;;;;;;;;;;;;;;;;;5022543;28;20030;-76
2021/12/15 17:49:02;;;;;;;;;;;;;;;;;;5016418;28;19913;-78
2021/12/15 17:51:28;;;;;;;;;;;;;;;;;;5024915;28;19956;-77
2021/12/15 17:53:54;;;;;;;;;;;;;;;;;;5022333;28;20337;-76
2021/12/15 17:56:20;;;;;;;;;;;;;;;;;;5027251;28;19944;-75
2021/12/15 17:58:48;;;;;;;;;;;;;;;;;;5019029;28;19925;-76
2021/12/15 18:01:14;;;;;;;;;;;;;;;;;;5024534;28;20277;-76
2021/12/15 18:03:40;;;;;;;;;;;;;;;;;;5028082;28;19913;-76
2021/12/15 18:06:06;;;;;;;;;;;;;;;;;;5036101;28;19975;-76
2021/12/15 18:08:32;;;;;;;;;;;;;;;;;;5016225;28;19979;-78
2021/12/15 18:11:09;;;;;;;;;;;;;;;;;;5019841;28;19963;-76
2021/12/15 18:13:35;;;;;;;;;;;;;;;;;;5024413;28;19913;-77
2021/12/15 18:16:01;;;;;;;;;;;;;;;;;;5014609;28;20190;-77
2021/12/15 18:18:27;;;;;;;;;;;;;;;;;;5021097;28;19953;-78
2021/12/15 18:20:53;;;;;;;;;;;;;;;;;;5025042;28;19949;-77